Terminal Aerodrome Forecast
Issued by NWS Sterling, VA

Current Version | Previous Version | Text Only | Print | Product List | Glossary Off
Versions: 1 2 3 4 5 6 7 8 9 10 11 12 13 14 15 16 17

000
FTUS41 KLWX 102300
TAFMRB
TAF
KMRB 102337Z 1100/1124 02007KT P6SM SCT050
     FM110100 VRB03KT P6SM BKN050 BKN130
     FM110700 00000KT 2SM BR SCT050
     FM111300 04005KT P6SM SCT050=

USA.gov is the U.S. government's official web portal to all federal, state and local government web resources and services.